createdAt,value
2022-08-26T00:00:27.745Z,0.00
2022-08-26T00:01:29.672Z,0.00
2022-08-26T00:02:27.732Z,0.00
2022-08-26T00:03:27.736Z,0.00
2022-08-26T00:04:27.734Z,0.00
2022-08-26T00:05:27.678Z,0.00
2022-08-26T00:06:28.205Z,0.00
2022-08-26T00:07:27.626Z,0.00
2022-08-26T00:08:27.658Z,0.00
2022-08-26T00:09:27.616Z,0.00
2022-08-26T00:10:27.618Z,0.00
2022-08-26T00:11:27.678Z,0.00
2022-08-26T00:12:31.490Z,0.00
2022-08-26T00:13:28.555Z,0.00
2022-08-26T00:14:31.001Z,0.00
2022-08-26T00:15:27.567Z,0.00
2022-08-26T00:16:27.591Z,0.00
2022-08-26T00:17:27.596Z,0.00
2022-08-26T00:18:27.526Z,0.00
2022-08-26T00:19:27.512Z,0.00
2022-08-26T00:20:27.510Z,0.00
2022-08-26T00:21:27.477Z,0.00
2022-08-26T00:22:27.487Z,0.00
2022-08-26T00:23:28.849Z,0.00
2022-08-26T00:24:27.459Z,0.00
2022-08-26T00:25:27.430Z,0.00
2022-08-26T00:26:28.444Z,0.00
2022-08-26T00:27:27.416Z,0.00
2022-08-26T00:28:28.268Z,0.00
2022-08-26T00:29:27.426Z,0.00
2022-08-26T00:30:28.268Z,0.00
2022-08-26T00:31:27.421Z,0.00
2022-08-26T00:32:27.375Z,0.00
2022-08-26T00:33:27.369Z,0.00
2022-08-26T00:34:27.374Z,0.00
2022-08-26T00:35:27.956Z,0.00
2022-08-26T00:36:29.649Z,0.00
2022-08-26T00:37:27.308Z,0.00
2022-08-26T00:38:27.304Z,0.00
2022-08-26T00:39:27.289Z,0.00
2022-08-26T00:40:27.390Z,0.00
2022-08-26T00:41:27.261Z,0.00
2022-08-26T00:42:27.307Z,0.00
2022-08-26T00:43:27.280Z,0.00
2022-08-26T00:44:27.339Z,0.00
2022-08-26T00:45:27.255Z,0.00
2022-08-26T00:46:27.219Z,0.00
2022-08-26T00:47:27.223Z,0.00
2022-08-26T00:48:27.227Z,0.00
2022-08-26T00:49:27.167Z,0.00
2022-08-26T00:50:27.178Z,0.00
2022-08-26T00:51:29.528Z,0.00
2022-08-26T00:52:27.157Z,0.00
2022-08-26T00:53:27.934Z,0.00
2022-08-26T00:54:27.309Z,0.00
2022-08-26T00:55:27.338Z,0.00
2022-08-26T00:56:28.102Z,0.00
2022-08-26T00:57:27.079Z,0.00
2022-08-26T00:58:27.070Z,0.00
2022-08-26T00:59:27.074Z,0.00
2022-08-26T01:00:27.062Z,0.00
2022-08-26T01:01:27.072Z,0.00
2022-08-26T01:02:27.048Z,0.00
2022-08-26T01:03:27.018Z,0.00
2022-08-26T01:04:27.011Z,0.00
2022-08-26T01:05:26.999Z,0.00
2022-08-26T01:06:27.010Z,0.00
2022-08-26T01:07:27.581Z,0.00
2022-08-26T01:08:26.973Z,0.00
2022-08-26T01:09:26.960Z,0.00
2022-08-26T01:10:26.939Z,0.00
2022-08-26T01:11:27.030Z,0.00
2022-08-26T01:12:27.036Z,0.00
2022-08-26T01:13:26.899Z,0.00
2022-08-26T01:14:26.906Z,0.00
2022-08-26T01:15:26.873Z,0.00
2022-08-26T01:16:26.897Z,0.00
2022-08-26T01:17:27.373Z,0.00
2022-08-26T01:18:26.861Z,0.00
2022-08-26T01:19:26.822Z,0.00
2022-08-26T01:20:26.830Z,0.00
2022-08-26T01:21:26.800Z,0.00
2022-08-26T01:22:28.165Z,0.00
2022-08-26T01:23:27.305Z,0.00
2022-08-26T01:24:26.799Z,0.00
2022-08-26T01:25:26.801Z,0.00
2022-08-26T01:26:26.846Z,0.00
2022-08-26T01:27:26.731Z,0.00
2022-08-26T01:28:27.950Z,0.00
2022-08-26T01:29:26.741Z,0.00
2022-08-26T01:30:26.716Z,0.00
2022-08-26T01:31:26.917Z,0.00
2022-08-26T01:32:26.858Z,0.00
2022-08-26T01:33:26.961Z,0.00
2022-08-26T01:34:26.930Z,0.00
2022-08-26T01:35:26.660Z,0.00
2022-08-26T01:36:26.650Z,0.00
2022-08-26T01:37:26.650Z,0.00
2022-08-26T01:38:26.635Z,0.00
2022-08-26T01:39:27.614Z,0.00
2022-08-26T01:40:26.725Z,0.00
2022-08-26T01:41:27.261Z,0.00
2022-08-26T01:42:26.595Z,0.00
2022-08-26T01:43:26.566Z,0.00
2022-08-26T01:44:26.636Z,0.00
2022-08-26T01:45:26.698Z,0.00
2022-08-26T01:46:26.547Z,0.00
2022-08-26T01:47:26.522Z,0.00
2022-08-26T01:48:26.545Z,0.00
2022-08-26T01:49:26.543Z,0.00
2022-08-26T01:50:28.175Z,0.00
2022-08-26T01:51:26.496Z,0.00
2022-08-26T01:52:28.069Z,0.00
2022-08-26T01:53:26.475Z,0.00
2022-08-26T01:54:26.457Z,0.00
2022-08-26T01:55:33.090Z,0.00
2022-08-26T01:56:33.266Z,0.00
2022-08-26T01:57:27.402Z,0.00
2022-08-26T01:58:26.419Z,0.00
2022-08-26T01:59:26.602Z,0.00
2022-08-26T02:00:26.665Z,0.00
2022-08-26T02:01:29.204Z,0.00
2022-08-26T02:02:26.378Z,0.00
2022-08-26T02:03:26.399Z,0.00
2022-08-26T02:04:26.459Z,0.00
2022-08-26T02:05:26.402Z,0.00
2022-08-26T02:06:26.384Z,0.00
2022-08-26T02:07:26.764Z,0.00
2022-08-26T02:08:26.287Z,0.00
2022-08-26T02:09:26.304Z,0.00
2022-08-26T02:10:26.352Z,0.00
2022-08-26T02:11:26.402Z,0.00
2022-08-26T02:12:26.440Z,0.00
2022-08-26T02:13:26.253Z,0.00
2022-08-26T02:14:26.781Z,0.00
2022-08-26T02:15:26.238Z,0.00
2022-08-26T02:16:26.591Z,0.00
2022-08-26T02:17:26.579Z,0.00
2022-08-26T02:18:26.166Z,0.00
2022-08-26T02:19:26.191Z,0.00
2022-08-26T02:20:26.566Z,0.00
2022-08-26T02:21:26.186Z,0.00
2022-08-26T02:22:26.145Z,0.00
2022-08-26T02:23:26.147Z,0.00
2022-08-26T02:24:27.488Z,0.00
2022-08-26T02:25:26.114Z,0.00
2022-08-26T02:26:27.110Z,0.00
2022-08-26T02:27:26.121Z,0.00
2022-08-26T02:28:26.641Z,0.00
2022-08-26T02:29:26.635Z,0.00
2022-08-26T02:30:26.145Z,0.00
2022-08-26T02:31:26.295Z,0.00
2022-08-26T02:32:27.127Z,0.00
2022-08-26T02:33:26.113Z,0.00
2022-08-26T02:34:25.981Z,0.00
2022-08-26T02:35:26.044Z,0.00
2022-08-26T02:36:28.733Z,0.00
2022-08-26T02:37:25.981Z,0.00
2022-08-26T02:38:25.956Z,0.00
2022-08-26T02:39:25.941Z,0.00
2022-08-26T02:40:26.308Z,0.00
2022-08-26T02:41:25.925Z,0.00
2022-08-26T02:42:26.303Z,0.00
2022-08-26T02:43:31.811Z,0.00
2022-08-26T02:44:27.411Z,0.00
2022-08-26T02:45:26.447Z,0.00
2022-08-26T02:46:29.852Z,0.00
2022-08-26T02:47:25.853Z,0.00
2022-08-26T02:48:25.823Z,0.00
2022-08-26T02:49:25.837Z,0.00
2022-08-26T02:50:25.833Z,0.00
2022-08-26T02:51:25.869Z,0.00
2022-08-26T02:52:25.861Z,0.00
2022-08-26T02:53:25.837Z,0.00
2022-08-26T02:54:25.833Z,0.00
2022-08-26T02:55:25.911Z,0.00
2022-08-26T02:56:25.801Z,0.00
2022-08-26T02:57:26.006Z,0.00
2022-08-26T02:58:25.736Z,0.00
2022-08-26T02:59:25.784Z,0.00
2022-08-26T03:00:25.765Z,0.00
2022-08-26T03:01:25.795Z,0.00
2022-08-26T03:02:26.077Z,0.00
2022-08-26T03:03:25.679Z,0.00
2022-08-26T03:04:26.036Z,0.00
2022-08-26T03:05:25.742Z,0.00
2022-08-26T03:06:25.634Z,0.00
2022-08-26T03:07:26.095Z,0.00
2022-08-26T03:08:25.652Z,0.00
2022-08-26T03:09:26.083Z,0.00
2022-08-26T03:10:26.018Z,0.00
2022-08-26T03:11:27.635Z,0.00
2022-08-26T03:12:26.548Z,0.00
2022-08-26T03:13:25.701Z,0.00
2022-08-26T03:14:25.816Z,0.00
2022-08-26T03:15:25.828Z,0.00
2022-08-26T03:16:25.569Z,0.00
2022-08-26T03:17:26.947Z,0.00
2022-08-26T03:18:25.508Z,0.00
2022-08-26T03:19:25.956Z,0.00
2022-08-26T03:20:25.974Z,0.00
2022-08-26T03:21:26.057Z,0.00
2022-08-26T03:22:26.097Z,0.00
2022-08-26T03:23:25.462Z,0.00
2022-08-26T03:24:26.182Z,0.00
2022-08-26T03:25:25.416Z,0.00
2022-08-26T03:26:25.433Z,0.00
2022-08-26T03:27:25.474Z,0.00
2022-08-26T03:28:27.138Z,0.00
2022-08-26T03:29:25.417Z,0.00
2022-08-26T03:30:25.376Z,0.00
2022-08-26T03:31:25.413Z,0.00
2022-08-26T03:32:27.208Z,0.00
2022-08-26T03:33:25.332Z,0.00
2022-08-26T03:34:25.445Z,0.00
2022-08-26T03:35:25.361Z,0.00
2022-08-26T03:36:25.266Z,0.00
2022-08-26T03:37:25.273Z,0.00
2022-08-26T03:38:28.468Z,0.00
2022-08-26T03:39:25.275Z,0.00
2022-08-26T03:40:25.383Z,0.00
2022-08-26T03:41:25.245Z,0.00
2022-08-26T03:42:25.205Z,0.00
2022-08-26T03:43:25.209Z,0.00
2022-08-26T03:44:25.205Z,0.00
2022-08-26T03:45:25.486Z,0.00
2022-08-26T03:46:25.252Z,0.00
2022-08-26T03:47:25.175Z,0.00
2022-08-26T03:48:25.145Z,0.00
2022-08-26T03:49:25.160Z,0.00
2022-08-26T03:50:25.146Z,0.00
2022-08-26T03:51:25.480Z,0.00
2022-08-26T03:52:25.255Z,0.00
2022-08-26T03:53:25.109Z,0.00
2022-08-26T03:54:25.586Z,0.00
2022-08-26T03:55:27.279Z,0.00
2022-08-26T03:56:25.195Z,0.00
2022-08-26T03:57:25.615Z,0.00
2022-08-26T03:58:25.025Z,0.00
2022-08-26T03:59:25.039Z,0.00
2022-08-26T04:00:25.737Z,0.00
2022-08-26T04:01:25.807Z,0.00
2022-08-26T04:02:25.030Z,0.00
2022-08-26T04:03:25.025Z,0.00
2022-08-26T04:04:24.978Z,4.00
2022-08-26T04:05:24.965Z,4.00
2022-08-26T04:06:25.058Z,0.00
2022-08-26T04:07:24.934Z,0.00
2022-08-26T04:08:24.928Z,4.00
2022-08-26T04:09:24.918Z,4.00
2022-08-26T04:10:29.229Z,4.00
2022-08-26T04:11:25.110Z,4.00
2022-08-26T04:12:24.868Z,8.00
2022-08-26T04:13:24.879Z,8.00
2022-08-26T04:14:25.316Z,8.00
2022-08-26T04:15:24.863Z,8.00
2022-08-26T04:16:24.987Z,12.00
2022-08-26T04:17:25.052Z,12.00
2022-08-26T04:18:24.836Z,16.00
2022-08-26T04:19:24.796Z,16.00
2022-08-26T04:20:24.786Z,20.00
2022-08-26T04:21:24.846Z,20.00
2022-08-26T04:22:25.072Z,24.00
2022-08-26T04:23:24.781Z,28.00
2022-08-26T04:24:24.720Z,32.00
2022-08-26T04:25:24.724Z,36.00
2022-08-26T04:26:24.706Z,40.00
2022-08-26T04:27:25.001Z,48.00
2022-08-26T04:28:24.680Z,52.00
2022-08-26T04:29:24.679Z,56.00
2022-08-26T04:30:24.676Z,64.00
2022-08-26T04:31:24.709Z,68.00
2022-08-26T04:32:24.657Z,76.00
2022-08-26T04:33:32.291Z,84.00
2022-08-26T04:34:27.250Z,88.00
2022-08-26T04:35:26.126Z,100.00
2022-08-26T04:36:25.057Z,108.00
2022-08-26T04:37:24.585Z,116.00
2022-08-26T04:38:24.578Z,124.00
2022-08-26T04:39:25.225Z,132.00
2022-08-26T04:40:24.676Z,144.00
2022-08-26T04:41:24.537Z,148.00
2022-08-26T04:42:26.229Z,156.00
2022-08-26T04:43:24.541Z,164.00
2022-08-26T04:44:24.518Z,172.00
2022-08-26T04:45:24.508Z,180.00
2022-08-26T04:46:24.592Z,188.00
2022-08-26T04:47:26.226Z,200.00
2022-08-26T04:48:24.476Z,208.00
2022-08-26T04:49:26.133Z,220.00
2022-08-26T04:50:24.437Z,236.00
2022-08-26T04:51:24.437Z,252.00
2022-08-26T04:52:24.412Z,268.00
2022-08-26T04:53:24.426Z,280.00
2022-08-26T04:54:25.172Z,292.00
2022-08-26T04:55:37.323Z,308.00
2022-08-26T04:56:25.669Z,320.00
2022-08-26T04:57:24.357Z,332.00
2022-08-26T04:58:24.330Z,348.00
2022-08-26T04:59:24.598Z,368.00
2022-08-26T05:00:24.330Z,384.00
2022-08-26T05:01:24.343Z,400.00
2022-08-26T05:02:24.291Z,412.00
2022-08-26T05:03:24.288Z,436.00
2022-08-26T05:04:24.314Z,468.00
2022-08-26T05:05:24.279Z,492.00
2022-08-26T05:06:24.253Z,504.00
2022-08-26T05:07:24.237Z,504.00
2022-08-26T05:08:24.245Z,508.00
2022-08-26T05:09:24.225Z,524.00
2022-08-26T05:10:24.198Z,548.00
2022-08-26T05:11:24.188Z,580.00
2022-08-26T05:12:24.166Z,608.00
2022-08-26T05:13:24.166Z,636.00
2022-08-26T05:14:24.168Z,656.00
2022-08-26T05:15:24.146Z,676.00
2022-08-26T05:16:24.326Z,672.00
2022-08-26T05:17:24.125Z,660.00
2022-08-26T05:18:24.112Z,664.00
2022-08-26T05:19:24.102Z,692.00
2022-08-26T05:20:26.227Z,716.00
2022-08-26T05:21:24.079Z,728.00
2022-08-26T05:22:24.078Z,760.00
2022-08-26T05:23:24.138Z,812.00
2022-08-26T05:24:24.038Z,872.00
2022-08-26T05:25:24.169Z,888.00
2022-08-26T05:26:24.169Z,916.00
2022-08-26T05:27:24.346Z,932.00
2022-08-26T05:28:23.992Z,956.00
2022-08-26T05:29:24.015Z,916.00
2022-08-26T05:30:23.968Z,912.00
2022-08-26T05:31:24.061Z,960.00
2022-08-26T05:32:23.958Z,988.00
2022-08-26T05:33:23.964Z,1040.00
2022-08-26T05:34:23.931Z,1048.00
2022-08-26T05:35:24.918Z,1056.00
2022-08-26T05:36:23.898Z,1112.00
2022-08-26T05:37:23.909Z,1100.00
2022-08-26T05:38:23.890Z,1104.00
2022-08-26T05:39:23.891Z,1184.00
2022-08-26T05:40:23.927Z,1248.00
2022-08-26T05:41:23.872Z,1296.00
2022-08-26T05:42:23.839Z,1344.00
2022-08-26T05:43:23.988Z,1312.00
2022-08-26T05:44:23.840Z,1320.00
2022-08-26T05:45:23.823Z,1312.00
2022-08-26T05:46:23.827Z,1300.00
2022-08-26T05:47:23.799Z,1192.00
2022-08-26T05:48:24.336Z,1144.00
2022-08-26T05:49:26.401Z,1224.00
2022-08-26T05:50:23.759Z,1188.00
2022-08-26T05:51:25.983Z,1176.00
2022-08-26T05:52:24.617Z,1208.00
2022-08-26T05:53:23.996Z,1280.00
2022-08-26T05:54:23.697Z,1344.00
2022-08-26T05:55:23.707Z,1320.00
2022-08-26T05:56:23.690Z,1316.00
2022-08-26T05:57:23.712Z,1212.00
2022-08-26T05:58:23.679Z,1164.00
2022-08-26T05:59:24.690Z,1184.00
2022-08-26T06:00:23.638Z,1180.00
2022-08-26T06:01:23.716Z,1200.00
2022-08-26T06:02:23.686Z,1256.00
2022-08-26T06:03:23.619Z,1284.00
2022-08-26T06:04:24.880Z,1264.00
2022-08-26T06:05:23.589Z,1336.00
2022-08-26T06:06:27.993Z,1316.00
2022-08-26T06:07:24.589Z,1204.00
2022-08-26T06:08:23.561Z,980.00
2022-08-26T06:09:23.540Z,976.00
2022-08-26T06:10:32.033Z,1076.00
2022-08-26T06:11:24.520Z,1128.00
2022-08-26T06:12:23.772Z,1232.00
2022-08-26T06:13:23.518Z,1196.00
2022-08-26T06:14:23.489Z,1256.00
2022-08-26T06:15:23.509Z,1328.00
2022-08-26T06:16:23.565Z,1340.00
2022-08-26T06:17:23.713Z,1384.00
2022-08-26T06:18:23.441Z,1404.00
2022-08-26T06:19:23.431Z,1388.00
2022-08-26T06:20:23.420Z,1504.00
2022-08-26T06:21:23.401Z,1588.00
2022-08-26T06:22:23.860Z,1548.00
2022-08-26T06:23:23.363Z,1608.00
2022-08-26T06:24:27.015Z,1580.00
2022-08-26T06:25:23.350Z,1728.00
2022-08-26T06:26:23.382Z,1808.00
2022-08-26T06:27:23.320Z,1920.00
2022-08-26T06:28:23.328Z,2028.00
2022-08-26T06:29:24.576Z,2092.00
2022-08-26T06:30:23.313Z,1960.00
2022-08-26T06:31:23.370Z,1724.00
2022-08-26T06:32:23.292Z,1504.00
2022-08-26T06:33:23.253Z,1568.00
2022-08-26T06:34:23.735Z,1692.00
2022-08-26T06:35:24.232Z,1732.00
2022-08-26T06:36:23.251Z,1884.00
2022-08-26T06:37:23.222Z,2024.00
2022-08-26T06:38:23.288Z,1972.00
2022-08-26T06:39:23.247Z,1988.00
2022-08-26T06:40:23.230Z,1888.00
2022-08-26T06:41:23.181Z,1908.00
2022-08-26T06:42:23.171Z,2012.00
2022-08-26T06:43:23.195Z,2096.00
2022-08-26T06:44:23.155Z,2236.00
2022-08-26T06:45:23.136Z,2272.00
2022-08-26T06:46:23.157Z,2252.00
2022-08-26T06:47:23.091Z,2376.00
2022-08-26T06:48:23.107Z,2348.00
2022-08-26T06:49:26.817Z,2284.00
2022-08-26T06:50:23.134Z,2296.00
2022-08-26T06:51:23.613Z,2460.00
2022-08-26T06:52:24.536Z,2516.00
2022-08-26T06:53:23.051Z,2600.00
2022-08-26T06:54:23.075Z,2544.00
2022-08-26T06:55:27.046Z,2688.00
2022-08-26T06:56:23.263Z,2988.00
2022-08-26T06:57:22.992Z,3064.00
2022-08-26T06:58:23.152Z,3104.00
2022-08-26T06:59:22.962Z,3152.00
2022-08-26T07:00:23.050Z,3108.00
2022-08-26T07:01:23.358Z,3228.00
2022-08-26T07:02:22.989Z,3420.00
2022-08-26T07:03:22.942Z,3564.00
2022-08-26T07:04:23.216Z,3524.00
2022-08-26T07:05:22.902Z,3524.00
2022-08-26T07:06:23.741Z,3516.00
2022-08-26T07:07:23.239Z,3260.00
2022-08-26T07:08:22.881Z,3108.00
2022-08-26T07:09:22.937Z,3080.00
2022-08-26T07:10:22.878Z,2936.00
2022-08-26T07:11:22.857Z,2656.00
2022-08-26T07:12:22.854Z,2544.00
2022-08-26T07:13:30.774Z,2400.00
2022-08-26T07:14:23.816Z,2164.00
2022-08-26T07:15:23.848Z,1800.00
2022-08-26T07:16:22.856Z,1552.00
2022-08-26T07:17:24.990Z,1440.00
2022-08-26T07:18:22.746Z,1376.00
2022-08-26T07:19:29.770Z,1372.00
2022-08-26T07:20:23.775Z,1480.00
2022-08-26T07:21:22.755Z,1560.00
2022-08-26T07:22:22.775Z,1664.00
2022-08-26T07:23:22.687Z,1752.00
2022-08-26T07:24:22.686Z,1936.00
2022-08-26T07:25:22.717Z,2088.00
2022-08-26T07:26:22.660Z,2068.00
2022-08-26T07:27:22.633Z,2088.00
2022-08-26T07:28:22.640Z,2132.00
2022-08-26T07:29:22.678Z,2492.00
2022-08-26T07:30:22.691Z,2592.00
2022-08-26T07:31:22.650Z,2688.00
2022-08-26T07:32:22.980Z,2896.00
2022-08-26T07:33:22.580Z,2996.00
2022-08-26T07:34:22.704Z,3000.00
2022-08-26T07:35:22.705Z,3080.00
2022-08-26T07:36:22.715Z,2944.00
2022-08-26T07:37:22.556Z,2804.00
2022-08-26T07:38:22.566Z,2716.00
2022-08-26T07:39:22.625Z,2624.00
2022-08-26T07:40:22.742Z,2536.00
2022-08-26T07:41:22.751Z,2556.00
2022-08-26T07:42:22.555Z,2700.00
2022-08-26T07:43:22.460Z,2792.00
2022-08-26T07:44:22.492Z,2820.00
2022-08-26T07:45:22.675Z,3020.00
2022-08-26T07:46:27.153Z,3324.00
2022-08-26T07:47:25.689Z,3752.00
2022-08-26T07:48:22.441Z,3984.00
2022-08-26T07:49:22.846Z,4016.00
2022-08-26T07:50:22.719Z,4008.00
2022-08-26T07:51:23.433Z,3960.00
2022-08-26T07:52:26.343Z,3752.00
2022-08-26T07:53:24.152Z,3212.00
2022-08-26T07:54:27.087Z,2700.00
2022-08-26T07:55:23.393Z,2460.00
2022-08-26T07:56:22.350Z,2440.00
2022-08-26T07:57:24.316Z,2428.00
2022-08-26T07:58:22.345Z,2452.00
2022-08-26T07:59:22.788Z,2656.00
2022-08-26T08:00:22.340Z,2636.00
2022-08-26T08:01:22.307Z,2780.00
2022-08-26T08:02:22.314Z,3320.00
2022-08-26T08:03:22.240Z,3808.00
2022-08-26T08:04:26.327Z,4100.00
2022-08-26T08:05:22.262Z,4052.00
2022-08-26T08:06:27.177Z,3908.00
2022-08-26T08:07:25.726Z,3992.00
2022-08-26T08:08:27.723Z,4000.00
2022-08-26T08:09:23.262Z,4060.00
2022-08-26T08:10:22.232Z,3788.00
2022-08-26T08:11:22.341Z,3484.00
2022-08-26T08:12:22.358Z,3780.00
2022-08-26T08:13:22.254Z,3948.00
2022-08-26T08:14:22.548Z,4160.00
2022-08-26T08:15:22.474Z,4344.00
2022-08-26T08:16:22.522Z,4528.00
2022-08-26T08:17:22.489Z,4704.00
2022-08-26T08:18:22.090Z,4736.00
2022-08-26T08:19:22.727Z,4900.00
2022-08-26T08:20:22.416Z,5072.00
2022-08-26T08:21:24.061Z,5216.00
2022-08-26T08:22:22.628Z,5476.00
2022-08-26T08:23:22.433Z,5564.00
2022-08-26T08:24:22.239Z,5660.00
2022-08-26T08:25:22.806Z,5500.00
2022-08-26T08:26:22.756Z,5316.00
2022-08-26T08:27:24.066Z,5304.00
2022-08-26T08:28:22.049Z,5080.00
2022-08-26T08:29:22.059Z,4824.00
2022-08-26T08:30:22.786Z,4796.00
2022-08-26T08:31:45.017Z,5108.00
2022-08-26T08:32:23.214Z,5168.00
2022-08-26T08:33:21.907Z,4956.00
2022-08-26T08:34:22.317Z,5060.00
2022-08-26T08:35:22.200Z,5264.00
2022-08-26T08:36:22.435Z,5476.00
2022-08-26T08:37:22.418Z,5672.00
2022-08-26T08:38:22.130Z,5796.00
2022-08-26T08:39:22.344Z,5804.00
2022-08-26T08:40:22.381Z,6004.00
2022-08-26T08:41:21.830Z,6072.00
2022-08-26T08:42:23.504Z,5340.00
2022-08-26T08:43:21.787Z,4536.00
2022-08-26T08:44:21.917Z,3912.00
2022-08-26T08:45:21.794Z,3620.00
2022-08-26T08:46:21.848Z,4036.00
2022-08-26T08:47:21.810Z,4864.00
2022-08-26T08:48:22.290Z,5872.00
2022-08-26T08:49:22.853Z,5800.00
2022-08-26T08:50:21.801Z,5728.00
2022-08-26T08:51:21.803Z,5720.00
2022-08-26T08:52:21.750Z,6320.00
2022-08-26T08:53:21.711Z,6356.00
2022-08-26T08:54:21.959Z,5880.00
2022-08-26T08:55:21.744Z,5212.00
2022-08-26T08:56:21.661Z,4716.00
2022-08-26T08:57:21.771Z,4628.00
2022-08-26T08:58:21.662Z,4668.00
2022-08-26T08:59:21.672Z,4380.00
2022-08-26T09:00:21.800Z,4320.00
2022-08-26T09:01:22.647Z,4312.00
2022-08-26T09:02:21.826Z,4256.00
2022-08-26T09:03:21.780Z,3988.00
2022-08-26T09:04:21.692Z,4048.00
2022-08-26T09:05:21.812Z,4300.00
2022-08-26T09:06:21.600Z,4408.00
2022-08-26T09:07:21.814Z,4388.00
2022-08-26T09:08:21.614Z,4464.00
2022-08-26T09:09:21.722Z,4552.00
2022-08-26T09:10:21.534Z,4304.00
2022-08-26T09:11:21.770Z,4440.00
2022-08-26T09:12:29.838Z,5100.00
2022-08-26T09:13:26.242Z,5584.00
2022-08-26T09:14:21.475Z,5576.00
2022-08-26T09:15:21.572Z,5352.00
2022-08-26T09:16:21.632Z,5104.00
2022-08-26T09:17:21.674Z,5080.00
2022-08-26T09:18:21.705Z,5200.00
2022-08-26T09:19:21.685Z,4836.00
2022-08-26T09:20:21.809Z,4120.00
2022-08-26T09:21:21.813Z,3956.00
2022-08-26T09:23:21.406Z,4608.00
2022-08-26T09:24:22.379Z,4604.00
2022-08-26T09:25:22.754Z,4388.00
2022-08-26T09:26:23.537Z,4160.00
2022-08-26T09:27:22.376Z,3996.00
2022-08-26T09:28:21.346Z,4192.00
2022-08-26T09:30:21.512Z,4820.00
2022-08-26T09:31:21.695Z,4272.00
2022-08-26T09:32:21.715Z,3792.00
2022-08-26T09:33:21.691Z,3532.00
2022-08-26T09:34:21.807Z,3424.00
2022-08-26T09:35:21.283Z,3360.00
2022-08-26T09:36:21.814Z,3292.00
2022-08-26T09:37:21.396Z,3300.00
2022-08-26T09:38:21.828Z,3208.00
2022-08-26T09:39:21.186Z,3296.00
2022-08-26T09:40:21.235Z,3260.00
2022-08-26T09:41:21.225Z,3444.00
2022-08-26T09:42:21.281Z,3360.00
2022-08-26T09:43:22.499Z,3488.00
2022-08-26T09:44:21.823Z,3584.00
2022-08-26T09:45:22.066Z,3664.00
2022-08-26T09:46:21.269Z,3692.00
2022-08-26T09:47:21.266Z,3736.00
2022-08-26T09:48:21.275Z,3692.00
2022-08-26T09:49:21.280Z,3816.00
2022-08-26T09:50:21.287Z,4096.00
2022-08-26T09:51:21.287Z,4120.00
2022-08-26T09:52:21.237Z,4012.00
2022-08-26T09:53:28.533Z,4224.00
2022-08-26T09:54:22.347Z,4464.00
2022-08-26T09:55:22.393Z,4324.00
2022-08-26T09:56:21.338Z,4032.00
2022-08-26T09:57:20.968Z,3768.00
2022-08-26T09:58:20.958Z,3640.00
2022-08-26T09:59:21.074Z,3684.00
2022-08-26T10:00:21.149Z,3808.00
2022-08-26T10:01:21.034Z,3876.00
2022-08-26T10:02:21.069Z,3700.00
2022-08-26T10:03:20.890Z,3708.00
2022-08-26T10:04:20.941Z,3644.00
2022-08-26T10:05:20.880Z,3552.00
2022-08-26T10:06:21.143Z,3452.00
2022-08-26T10:07:20.951Z,3412.00
2022-08-26T10:08:20.899Z,3344.00
2022-08-26T10:09:20.908Z,3304.00
2022-08-26T10:10:20.920Z,3288.00
2022-08-26T10:11:20.809Z,3340.00
2022-08-26T10:12:20.837Z,3356.00
2022-08-26T10:13:20.841Z,3368.00
2022-08-26T10:14:20.837Z,3392.00
2022-08-26T10:15:20.855Z,3384.00
2022-08-26T10:16:20.871Z,3400.00
2022-08-26T10:17:20.890Z,3420.00
2022-08-26T10:18:20.868Z,3448.00
2022-08-26T10:19:20.905Z,3408.00
2022-08-26T10:20:22.919Z,3412.00
2022-08-26T10:21:20.892Z,3380.00
2022-08-26T10:22:20.722Z,3340.00
2022-08-26T10:23:20.713Z,3332.00
2022-08-26T10:24:20.713Z,3340.00
2022-08-26T10:25:20.700Z,3396.00
2022-08-26T10:26:20.762Z,3420.00
2022-08-26T10:27:20.629Z,3472.00
2022-08-26T10:28:20.650Z,3492.00
2022-08-26T10:29:20.736Z,3472.00
2022-08-26T10:30:20.817Z,3432.00
2022-08-26T10:31:20.690Z,3424.00
2022-08-26T10:32:21.815Z,3432.00
2022-08-26T10:33:20.763Z,3440.00
2022-08-26T10:34:21.263Z,3416.00
2022-08-26T10:35:21.302Z,3384.00
2022-08-26T10:36:20.841Z,3344.00
2022-08-26T10:37:20.532Z,3332.00
2022-08-26T10:38:20.503Z,3344.00
2022-08-26T10:39:20.803Z,3332.00
2022-08-26T10:40:20.848Z,3288.00
2022-08-26T10:41:20.824Z,3228.00
2022-08-26T10:42:20.946Z,3212.00
2022-08-26T10:43:21.097Z,3224.00
2022-08-26T10:44:20.433Z,3248.00
2022-08-26T10:45:20.476Z,3248.00
2022-08-26T10:46:20.539Z,3240.00
2022-08-26T10:47:20.574Z,3260.00
2022-08-26T10:48:20.394Z,3288.00
2022-08-26T10:49:20.458Z,3332.00
2022-08-26T10:50:20.366Z,3348.00
2022-08-26T10:51:20.385Z,3356.00
2022-08-26T10:52:20.381Z,3332.00
2022-08-26T10:53:25.295Z,3320.00
2022-08-26T10:54:21.437Z,3276.00
2022-08-26T10:55:20.327Z,3272.00
2022-08-26T10:56:20.297Z,3272.00
2022-08-26T10:57:20.301Z,3280.00
2022-08-26T10:58:26.171Z,3292.00
2022-08-26T10:59:21.279Z,3300.00
2022-08-26T11:00:20.273Z,3320.00
2022-08-26T11:01:22.781Z,3348.00
2022-08-26T11:02:24.711Z,3372.00
2022-08-26T11:03:22.110Z,3388.00
2022-08-26T11:04:20.332Z,3452.00
2022-08-26T11:05:20.215Z,3500.00
2022-08-26T11:06:20.278Z,3520.00
2022-08-26T11:07:20.217Z,3496.00
2022-08-26T11:08:20.156Z,3456.00
2022-08-26T11:09:20.156Z,3456.00
2022-08-26T11:10:21.200Z,3468.00
2022-08-26T11:11:20.138Z,3492.00
2022-08-26T11:12:20.125Z,3492.00
2022-08-26T11:13:20.148Z,3468.00
2022-08-26T11:14:28.393Z,3452.00
2022-08-26T11:15:24.593Z,3448.00
2022-08-26T11:16:20.138Z,3444.00
2022-08-26T11:17:20.075Z,3444.00
2022-08-26T11:18:20.059Z,3492.00
2022-08-26T11:19:21.076Z,3468.00
2022-08-26T11:20:24.333Z,3440.00
2022-08-26T11:21:21.026Z,3396.00
2022-08-26T11:22:19.999Z,3396.00
2022-08-26T11:23:20.009Z,3356.00
2022-08-26T11:24:20.117Z,3380.00
2022-08-26T11:25:20.002Z,3400.00
2022-08-26T11:26:35.481Z,3412.00
2022-08-26T11:27:20.962Z,3380.00
2022-08-26T11:28:19.970Z,3332.00
2022-08-26T11:29:20.743Z,3312.00
2022-08-26T11:30:19.952Z,3304.00
2022-08-26T11:31:19.972Z,3324.00
2022-08-26T11:32:19.889Z,3336.00
2022-08-26T11:33:19.910Z,3336.00
2022-08-26T11:34:19.860Z,3352.00
2022-08-26T11:35:19.877Z,3380.00
2022-08-26T11:36:19.884Z,3404.00
2022-08-26T11:38:19.821Z,3472.00
2022-08-26T11:39:19.830Z,3512.00
2022-08-26T11:40:19.860Z,3576.00
2022-08-26T11:41:19.832Z,3684.00
2022-08-26T11:42:20.131Z,3932.00
2022-08-26T11:43:20.177Z,4228.00
2022-08-26T11:44:19.781Z,4076.00
2022-08-26T11:45:19.885Z,3688.00
2022-08-26T11:46:19.834Z,3736.00
2022-08-26T11:47:20.582Z,3848.00
2022-08-26T11:48:19.740Z,3692.00
2022-08-26T11:49:19.743Z,3704.00
2022-08-26T11:50:19.757Z,3680.00
2022-08-26T11:51:19.702Z,3816.00
2022-08-26T11:52:20.904Z,3860.00
2022-08-26T11:53:19.722Z,3596.00
2022-08-26T11:54:31.871Z,3440.00
2022-08-26T11:55:20.689Z,3444.00
2022-08-26T11:56:19.625Z,3460.00
2022-08-26T11:57:19.623Z,3456.00
2022-08-26T11:58:19.613Z,3404.00
2022-08-26T11:59:19.644Z,3428.00
2022-08-26T12:00:22.270Z,3508.00
2022-08-26T12:01:19.578Z,3512.00
2022-08-26T12:02:19.654Z,3560.00
2022-08-26T12:03:19.728Z,3556.00
2022-08-26T12:04:19.882Z,3524.00
2022-08-26T12:05:19.598Z,3524.00
2022-08-26T12:06:19.643Z,3556.00
2022-08-26T12:07:23.890Z,3624.00
2022-08-26T12:08:19.510Z,3692.00
2022-08-26T12:09:19.621Z,3708.00
2022-08-26T12:10:19.497Z,3672.00
2022-08-26T12:11:19.491Z,3668.00
2022-08-26T12:12:19.455Z,3776.00
2022-08-26T12:13:19.448Z,4028.00
2022-08-26T12:14:19.426Z,4120.00
2022-08-26T12:15:19.533Z,3948.00
2022-08-26T12:16:19.434Z,3772.00
2022-08-26T12:17:19.420Z,3676.00
2022-08-26T12:18:20.655Z,3668.00
2022-08-26T12:19:21.202Z,3668.00
2022-08-26T12:20:19.389Z,3688.00
2022-08-26T12:21:19.440Z,3756.00
2022-08-26T12:22:20.944Z,3796.00
2022-08-26T12:23:19.357Z,3848.00
2022-08-26T12:24:19.608Z,3780.00
2022-08-26T12:25:19.327Z,3720.00
2022-08-26T12:26:19.339Z,3704.00
2022-08-26T12:27:19.317Z,3780.00
2022-08-26T12:28:19.328Z,3816.00
2022-08-26T12:29:26.828Z,3776.00
2022-08-26T12:30:20.305Z,3748.00
2022-08-26T12:31:19.394Z,3748.00
2022-08-26T12:32:19.258Z,3728.00
2022-08-26T12:33:22.665Z,3736.00
2022-08-26T12:34:19.240Z,3756.00
2022-08-26T12:35:19.233Z,3740.00